createdAt,value
2022-09-06T00:00:32.049Z,1.73
2022-09-06T00:03:01.207Z,2.30
2022-09-06T00:05:30.262Z,1.63
2022-09-06T00:08:00.257Z,2.20
2022-09-06T00:10:28.891Z,1.90
2022-09-06T00:12:57.065Z,2.03
2022-09-06T00:15:25.223Z,1.90
2022-09-06T00:17:54.678Z,2.10
2022-09-06T00:20:22.841Z,1.90
2022-09-06T00:22:51.136Z,1.80
2022-09-06T00:25:19.303Z,1.90
2022-09-06T00:30:20.265Z,1.87
2022-09-06T00:32:48.329Z,1.23
2022-09-06T00:35:18.301Z,1.50
2022-09-06T00:37:46.926Z,1.83
2022-09-06T00:40:15.602Z,2.10
2022-09-06T00:42:43.858Z,1.80
2022-09-06T00:45:13.035Z,2.27
2022-09-06T00:47:43.716Z,1.70
2022-09-06T00:50:15.189Z,1.50
2022-09-06T00:52:46.181Z,1.30
2022-09-06T00:55:14.642Z,1.57
2022-09-06T00:57:43.169Z,1.40
2022-09-06T01:00:12.161Z,1.23
2022-09-06T01:02:40.302Z,1.40
2022-09-06T01:05:09.261Z,1.87
2022-09-06T01:07:54.787Z,1.60
2022-09-06T01:10:39.880Z,1.37
2022-09-06T01:13:20.876Z,1.50
2022-09-06T01:15:57.733Z,1.60
2022-09-06T01:18:40.197Z,1.73
2022-09-06T01:21:26.791Z,1.60
2022-09-06T01:24:26.886Z,1.27
2022-09-06T01:27:36.468Z,1.40
2022-09-06T01:30:08.254Z,1.40
2022-09-06T01:32:42.950Z,1.20
2022-09-06T01:35:19.662Z,0.97
2022-09-06T01:37:48.157Z,1.00
2022-09-06T01:40:16.238Z,0.90
2022-09-06T01:42:48.205Z,1.27
2022-09-06T01:45:21.498Z,1.30
2022-09-06T01:48:01.741Z,1.00
2022-09-06T01:50:54.066Z,1.07
2022-09-06T01:53:37.331Z,1.00
2022-09-06T01:56:12.508Z,1.00
2022-09-06T01:59:01.331Z,0.90
2022-09-06T02:01:39.727Z,0.80
2022-09-06T02:04:15.856Z,1.27
2022-09-06T02:06:48.368Z,1.07
2022-09-06T02:09:20.812Z,1.00
2022-09-06T02:11:51.953Z,0.87
2022-09-06T02:14:25.863Z,0.80
2022-09-06T02:16:57.489Z,1.00
2022-09-06T02:19:34.293Z,0.77
2022-09-06T02:22:04.518Z,0.83
2022-09-06T02:24:34.692Z,0.90
2022-09-06T02:27:02.839Z,0.90
2022-09-06T02:29:31.251Z,1.00
2022-09-06T02:32:04.971Z,0.80
2022-09-06T02:34:33.140Z,0.80
2022-09-06T02:37:01.917Z,0.70
2022-09-06T02:39:30.175Z,0.90
2022-09-06T02:41:58.926Z,0.70
2022-09-06T02:44:26.918Z,0.80
2022-09-06T02:46:57.096Z,1.00
2022-09-06T02:49:26.868Z,1.00
2022-09-06T02:51:54.992Z,0.80
2022-09-06T02:54:23.097Z,0.87
2022-09-06T02:56:52.381Z,0.87
2022-09-06T02:59:20.901Z,0.53
2022-09-06T03:01:49.258Z,0.80
2022-09-06T03:04:17.509Z,1.00
2022-09-06T03:06:46.914Z,0.60
2022-09-06T03:09:15.071Z,0.50
2022-09-06T03:11:43.197Z,0.67
2022-09-06T03:14:11.420Z,0.63
2022-09-06T03:16:39.704Z,0.80
2022-09-06T03:19:08.059Z,0.80
2022-09-06T03:21:36.188Z,0.60
2022-09-06T03:24:06.468Z,0.90
2022-09-06T03:26:34.673Z,0.50
2022-09-06T03:29:03.127Z,0.63
2022-09-06T03:31:31.440Z,0.90
2022-09-06T03:34:00.200Z,0.83
2022-09-06T03:36:28.354Z,0.80
2022-09-06T03:38:56.495Z,0.60
2022-09-06T03:41:26.246Z,0.80
2022-09-06T03:43:54.375Z,0.80
2022-09-06T03:46:22.630Z,1.53
2022-09-06T03:48:51.196Z,0.80
2022-09-06T03:51:19.248Z,0.70
2022-09-06T03:53:47.558Z,0.60
2022-09-06T03:56:16.073Z,0.67
2022-09-06T03:58:45.813Z,0.80
2022-09-06T04:01:14.110Z,0.80
2022-09-06T04:03:42.798Z,0.80
2022-09-06T04:06:11.290Z,0.93
2022-09-06T04:08:40.098Z,0.70
2022-09-06T04:11:08.238Z,0.63
2022-09-06T04:13:37.299Z,0.93
2022-09-06T04:16:07.743Z,0.70
2022-09-06T04:18:36.470Z,0.60
2022-09-06T04:21:05.170Z,0.73
2022-09-06T04:23:37.645Z,0.90
2022-09-06T04:26:07.876Z,0.83
2022-09-06T04:28:36.142Z,0.80
2022-09-06T04:31:06.776Z,0.73
2022-09-06T04:33:36.400Z,1.00
2022-09-06T04:36:06.885Z,0.60
2022-09-06T04:38:38.175Z,0.83
2022-09-06T04:41:06.953Z,1.10
2022-09-06T04:43:36.114Z,0.80
2022-09-06T04:46:07.873Z,0.50
2022-09-06T04:48:36.290Z,0.63
2022-09-06T04:51:04.514Z,0.80
2022-09-06T04:53:33.344Z,0.80
2022-09-06T04:56:01.744Z,1.07
2022-09-06T04:58:29.960Z,0.70
2022-09-06T05:00:58.293Z,0.90
2022-09-06T05:03:27.878Z,0.90
2022-09-06T05:06:05.937Z,0.73
2022-09-06T05:08:34.129Z,0.90
2022-09-06T05:11:02.276Z,0.70
2022-09-06T05:13:30.950Z,0.90
2022-09-06T05:16:02.393Z,0.60
2022-09-06T05:18:32.179Z,0.80
2022-09-06T05:21:01.000Z,0.90
2022-09-06T05:23:29.712Z,0.70
2022-09-06T05:25:57.826Z,0.60
2022-09-06T05:28:25.935Z,1.00
2022-09-06T05:30:54.166Z,0.97
2022-09-06T05:33:25.335Z,0.90
2022-09-06T05:35:54.827Z,0.70
2022-09-06T05:38:23.076Z,0.67
2022-09-06T05:40:51.330Z,1.10
2022-09-06T05:43:19.565Z,0.90
2022-09-06T05:45:47.657Z,0.90
2022-09-06T05:48:16.067Z,1.10
2022-09-06T05:50:44.342Z,0.77
2022-09-06T05:53:13.889Z,1.00
2022-09-06T05:55:43.108Z,1.03
2022-09-06T05:58:11.396Z,0.73
2022-09-06T06:00:39.602Z,0.93
2022-09-06T06:03:07.719Z,1.20
2022-09-06T06:05:35.936Z,0.73
2022-09-06T06:08:04.491Z,0.87
2022-09-06T06:10:38.503Z,0.93
2022-09-06T06:13:07.003Z,0.77
2022-09-06T06:15:35.379Z,1.03
2022-09-06T06:18:03.411Z,0.80
2022-09-06T06:20:31.638Z,0.70
2022-09-06T06:22:59.830Z,0.60
2022-09-06T06:25:27.989Z,0.80
2022-09-06T06:27:57.613Z,0.77
2022-09-06T06:30:31.454Z,0.80
2022-09-06T06:33:00.650Z,0.73
2022-09-06T06:35:28.951Z,1.30
2022-09-06T06:37:57.627Z,0.90
2022-09-06T06:40:28.862Z,0.93
2022-09-06T06:43:15.687Z,1.17
2022-09-06T06:45:43.989Z,0.63
2022-09-06T06:48:12.239Z,0.98
2022-09-06T06:50:46.242Z,0.80
2022-09-06T06:53:14.550Z,1.02
2022-09-06T06:55:49.324Z,1.10
2022-09-06T06:58:24.576Z,1.08
2022-09-06T07:00:52.884Z,1.00
2022-09-06T07:03:21.756Z,1.00
2022-09-06T07:08:43.532Z,1.02
2022-09-06T07:11:13.457Z,1.30
2022-09-06T07:13:44.925Z,1.10
2022-09-06T07:16:15.319Z,1.15
2022-09-06T07:18:45.645Z,1.60
2022-09-06T07:25:06.499Z,1.00
2022-09-06T07:30:53.721Z,0.90
2022-09-06T07:37:02.926Z,1.00
2022-09-06T07:39:32.750Z,1.17
2022-09-06T07:42:01.540Z,1.40
2022-09-06T07:44:29.898Z,1.25
2022-09-06T07:55:27.503Z,1.50
2022-09-06T07:57:55.592Z,1.67
2022-09-06T08:00:23.693Z,1.50
2022-09-06T08:02:53.323Z,1.40
2022-09-06T08:10:57.382Z,1.20
2022-09-06T08:13:25.515Z,1.33
2022-09-06T08:16:00.288Z,1.67
2022-09-06T08:18:29.818Z,1.35
2022-09-06T08:20:58.045Z,1.35
2022-09-06T08:23:26.051Z,1.50
2022-09-06T08:25:58.816Z,1.27
2022-09-06T08:28:28.939Z,1.20
2022-09-06T08:31:05.749Z,1.67
2022-09-06T08:33:35.373Z,1.27
2022-09-06T08:36:03.645Z,1.80
2022-09-06T08:38:32.002Z,1.63
2022-09-06T08:41:09.001Z,1.45
2022-09-06T08:43:37.862Z,1.50
2022-09-06T08:46:07.492Z,1.67
2022-09-06T08:48:54.046Z,1.83
2022-09-06T08:51:46.474Z,2.00
2022-09-06T08:54:22.909Z,2.03
2022-09-06T08:57:03.889Z,1.75
2022-09-06T08:59:43.540Z,1.73
2022-09-06T09:02:14.537Z,1.48
2022-09-06T09:04:47.385Z,1.70
2022-09-06T09:07:27.931Z,1.83
2022-09-06T09:09:58.892Z,1.83
2022-09-06T09:12:29.377Z,1.50
2022-09-06T09:15:05.744Z,1.52
2022-09-06T09:17:36.160Z,1.77
2022-09-06T09:20:06.598Z,2.05
2022-09-06T09:22:34.689Z,1.92
2022-09-06T09:25:03.948Z,1.88
2022-09-06T09:27:34.626Z,1.95
2022-09-06T09:32:54.964Z,1.90
2022-09-06T09:35:33.966Z,1.90
2022-09-06T09:38:09.472Z,2.03
2022-09-06T09:40:42.881Z,2.05
2022-09-06T09:43:16.563Z,2.33
2022-09-06T09:45:45.497Z,2.55
2022-09-06T09:48:24.838Z,2.47
2022-09-06T09:50:55.213Z,2.08
2022-09-06T09:53:26.576Z,2.15
2022-09-06T09:55:59.205Z,1.73
2022-09-06T09:58:34.649Z,1.98
2022-09-06T10:01:21.375Z,1.88
2022-09-06T10:09:35.990Z,2.15
2022-09-06T10:12:04.966Z,2.30
2022-09-06T10:14:40.818Z,2.45
2022-09-06T10:17:09.413Z,2.45
2022-09-06T10:19:43.290Z,2.55
2022-09-06T10:22:28.091Z,2.38
2022-09-06T10:25:18.258Z,2.03
2022-09-06T10:28:10.796Z,2.53
2022-09-06T10:30:47.114Z,2.45
2022-09-06T10:33:27.070Z,2.28
2022-09-06T10:35:58.372Z,2.33
2022-09-06T10:38:39.151Z,2.30
2022-09-06T10:41:37.126Z,2.72
2022-09-06T10:44:19.859Z,2.08
2022-09-06T10:46:52.608Z,2.38
2022-09-06T10:49:21.498Z,2.78
2022-09-06T10:51:53.757Z,2.20
2022-09-06T10:54:25.440Z,2.80
2022-09-06T10:56:57.735Z,2.60
2022-09-06T10:59:38.063Z,2.67
2022-09-06T11:02:17.383Z,2.28
2022-09-06T11:07:39.440Z,2.47
2022-09-06T11:10:16.351Z,2.50
2022-09-06T11:12:50.577Z,2.95
2022-09-06T11:15:20.983Z,2.60
2022-09-06T11:17:56.362Z,2.50
2022-09-06T11:20:32.248Z,2.85
2022-09-06T11:23:31.140Z,2.28
2022-09-06T11:26:16.295Z,2.78
2022-09-06T11:28:48.694Z,2.47
2022-09-06T11:34:21.808Z,2.65
2022-09-06T11:36:51.489Z,2.20
2022-09-06T11:42:42.397Z,2.70
2022-09-06T11:45:21.809Z,2.70
2022-09-06T11:47:52.041Z,2.67
2022-09-06T11:50:28.050Z,2.83
2022-09-06T11:53:15.185Z,2.40
2022-09-06T11:55:45.845Z,2.80
2022-09-06T11:58:28.171Z,2.58
2022-09-06T12:01:34.746Z,2.45
2022-09-06T12:04:05.302Z,2.50
2022-09-06T12:06:37.614Z,2.70
2022-09-06T12:09:38.718Z,2.35
2022-09-06T12:12:07.862Z,2.63
2022-09-06T12:14:40.909Z,2.88
2022-09-06T12:17:27.105Z,2.90
2022-09-06T12:19:59.580Z,2.65
2022-09-06T12:23:04.553Z,2.40
2022-09-06T12:25:57.541Z,2.55
2022-09-06T12:28:34.863Z,2.72
2022-09-06T12:31:25.647Z,3.28
2022-09-06T12:33:54.849Z,2.88
2022-09-06T12:36:29.901Z,2.78
2022-09-06T12:39:00.107Z,3.10
2022-09-06T12:41:30.844Z,2.20
2022-09-06T12:44:01.312Z,2.60
2022-09-06T12:46:32.537Z,2.35
2022-09-06T12:49:03.094Z,2.58
2022-09-06T12:51:31.679Z,2.72
2022-09-06T12:54:01.683Z,3.08
2022-09-06T12:56:32.923Z,2.97
2022-09-06T12:59:19.510Z,2.30
2022-09-06T13:01:54.739Z,2.78
2022-09-06T13:04:32.297Z,2.92
2022-09-06T13:07:02.351Z,2.90
2022-09-06T13:09:31.524Z,2.85
2022-09-06T13:12:08.229Z,2.60
2022-09-06T13:14:36.881Z,2.65
2022-09-06T13:17:06.677Z,2.72
2022-09-06T13:19:36.509Z,2.75
2022-09-06T13:22:07.637Z,2.65
2022-09-06T13:24:47.667Z,2.50
2022-09-06T13:27:26.899Z,2.67
2022-09-06T13:29:59.304Z,3.00
2022-09-06T13:32:30.081Z,3.45
2022-09-06T13:35:00.503Z,2.92
2022-09-06T13:37:31.604Z,2.72
2022-09-06T13:40:00.024Z,2.58
2022-09-06T13:42:30.782Z,2.70
2022-09-06T13:45:02.181Z,2.80
2022-09-06T13:47:31.919Z,2.78
2022-09-06T13:50:00.429Z,2.63
2022-09-06T13:52:29.321Z,2.22
2022-09-06T13:54:57.231Z,2.78
2022-09-06T13:57:25.289Z,2.58
2022-09-06T13:59:53.506Z,3.30
2022-09-06T14:02:21.643Z,3.10
2022-09-06T14:04:50.951Z,2.72
2022-09-06T14:07:19.215Z,3.42
2022-09-06T14:09:47.872Z,3.38
2022-09-06T14:12:16.041Z,2.80
2022-09-06T14:14:44.633Z,3.47
2022-09-06T14:17:12.566Z,3.10
2022-09-06T14:19:40.622Z,3.25
2022-09-06T14:22:10.224Z,2.65
2022-09-06T14:24:38.444Z,2.92
2022-09-06T14:27:07.209Z,3.55
2022-09-06T14:29:35.770Z,3.17
2022-09-06T14:32:04.329Z,2.90
2022-09-06T14:34:32.762Z,2.63
2022-09-06T14:37:01.031Z,2.92
2022-09-06T14:39:30.894Z,3.00
2022-09-06T14:41:59.261Z,2.90
2022-09-06T14:44:27.396Z,2.95
2022-09-06T14:46:55.414Z,3.17
2022-09-06T14:49:23.482Z,3.65
2022-09-06T14:51:53.593Z,2.80
2022-09-06T14:54:24.152Z,2.90
2022-09-06T14:56:56.803Z,2.75
2022-09-06T14:59:24.823Z,2.60
2022-09-06T15:01:52.951Z,2.75
2022-09-06T15:04:21.214Z,3.10
2022-09-06T15:06:49.166Z,2.88
2022-09-06T15:09:18.138Z,3.05
2022-09-06T15:11:49.073Z,3.08
2022-09-06T15:14:20.226Z,2.92
2022-09-06T15:16:53.479Z,3.00
2022-09-06T15:19:24.477Z,2.92
2022-09-06T15:21:52.696Z,2.67
2022-09-06T15:24:21.469Z,3.10
2022-09-06T15:26:49.997Z,2.60
2022-09-06T15:29:20.476Z,3.28
2022-09-06T15:31:50.550Z,3.10
2022-09-06T15:34:19.808Z,2.92
2022-09-06T15:36:47.866Z,3.03
2022-09-06T15:39:16.143Z,3.20
2022-09-06T15:41:44.210Z,3.15
2022-09-06T15:44:14.045Z,3.60
2022-09-06T15:46:46.455Z,3.33
2022-09-06T15:49:16.703Z,3.20
2022-09-06T15:51:44.894Z,2.70
2022-09-06T15:54:14.124Z,3.38
2022-09-06T15:56:42.499Z,3.13
2022-09-06T15:59:10.856Z,2.97
2022-09-06T16:01:39.327Z,3.45
2022-09-06T16:04:08.808Z,2.95
2022-09-06T16:06:39.696Z,3.00
2022-09-06T16:09:09.865Z,3.15
2022-09-06T16:11:38.365Z,2.72
2022-09-06T16:14:07.881Z,2.92
2022-09-06T16:16:36.595Z,3.08
2022-09-06T16:19:04.899Z,2.92
2022-09-06T16:21:37.747Z,2.95
2022-09-06T16:24:08.762Z,3.03
2022-09-06T16:26:38.772Z,2.80
2022-09-06T16:29:09.253Z,3.50
2022-09-06T16:31:40.240Z,2.92
2022-09-06T16:34:09.032Z,3.05
2022-09-06T16:36:38.810Z,2.90
2022-09-06T16:39:07.479Z,2.78
2022-09-06T16:41:40.649Z,2.75
2022-09-06T16:44:09.268Z,3.00
2022-09-06T16:46:40.121Z,2.88
2022-09-06T16:49:08.180Z,3.35
2022-09-06T16:51:36.187Z,2.97
2022-09-06T16:54:05.787Z,2.95
2022-09-06T16:56:36.081Z,3.17
2022-09-06T16:59:06.838Z,2.78
2022-09-06T17:01:36.257Z,3.22
2022-09-06T17:04:05.574Z,3.35
2022-09-06T17:06:35.853Z,3.03
2022-09-06T17:09:05.327Z,2.97
2022-09-06T17:11:33.582Z,2.92
2022-09-06T17:14:01.436Z,2.60
2022-09-06T17:16:46.950Z,3.33
2022-09-06T17:19:15.210Z,3.15
2022-09-06T17:21:44.535Z,3.53
2022-09-06T17:24:13.938Z,3.05
2022-09-06T17:26:41.890Z,3.20
2022-09-06T17:29:10.733Z,3.22
2022-09-06T17:31:39.459Z,2.65
2022-09-06T17:34:07.884Z,2.63
2022-09-06T17:36:36.468Z,2.30
2022-09-06T17:39:07.490Z,3.10
2022-09-06T17:41:39.030Z,2.78
2022-09-06T17:44:10.481Z,3.08
2022-09-06T17:46:47.713Z,3.20
2022-09-06T17:49:20.618Z,2.80
2022-09-06T17:51:49.335Z,3.00
2022-09-06T17:54:18.598Z,2.72
2022-09-06T17:56:48.015Z,2.72
2022-09-06T17:59:16.356Z,3.00
2022-09-06T18:01:46.080Z,2.80
2022-09-06T18:04:16.069Z,2.92
2022-09-06T18:06:46.846Z,3.20
2022-09-06T18:09:17.882Z,2.85
2022-09-06T18:11:47.632Z,2.70
2022-09-06T18:14:17.969Z,3.35
2022-09-06T18:16:47.482Z,2.83
2022-09-06T18:19:17.902Z,3.05
2022-09-06T18:21:47.035Z,2.83
2022-09-06T18:24:15.509Z,2.65
2022-09-06T18:26:45.474Z,3.60
2022-09-06T18:29:16.777Z,2.92
2022-09-06T18:31:45.954Z,3.00
2022-09-06T18:34:14.138Z,2.53
2022-09-06T18:36:42.300Z,2.45
2022-09-06T18:39:11.417Z,2.70
2022-09-06T18:41:57.095Z,2.58
2022-09-06T18:44:30.248Z,2.72
2022-09-06T18:47:01.351Z,2.47
2022-09-06T18:49:30.171Z,2.83
2022-09-06T18:51:58.246Z,2.80
2022-09-06T18:54:26.824Z,2.65
2022-09-06T18:56:54.877Z,2.97
2022-09-06T18:59:23.676Z,2.80
2022-09-06T19:01:53.251Z,2.17
2022-09-06T19:04:21.704Z,2.75
2022-09-06T19:06:50.417Z,2.38
2022-09-06T19:09:18.770Z,2.25
2022-09-06T19:11:51.663Z,2.10
2022-09-06T19:14:20.387Z,2.35
2022-09-06T19:16:50.210Z,2.50
2022-09-06T19:19:22.428Z,2.22
2022-09-06T19:21:50.806Z,2.05
2022-09-06T19:24:22.551Z,2.30
2022-09-06T19:26:51.665Z,2.70
2022-09-06T19:29:20.703Z,2.22
2022-09-06T19:31:49.500Z,2.10
2022-09-06T19:34:19.231Z,2.55
2022-09-06T19:36:47.482Z,2.47
2022-09-06T19:39:17.047Z,2.40
2022-09-06T19:41:47.167Z,2.25
2022-09-06T19:44:16.283Z,2.10
2022-09-06T19:46:46.793Z,2.08
2022-09-06T19:49:16.280Z,2.17
2022-09-06T19:51:46.611Z,2.10
2022-09-06T19:54:15.460Z,2.13
2022-09-06T19:56:44.368Z,1.92
2022-09-06T19:59:13.592Z,2.90
2022-09-06T20:01:44.413Z,2.25
2022-09-06T20:04:14.500Z,2.53
2022-09-06T20:06:42.490Z,2.45
2022-09-06T20:09:12.676Z,2.55
2022-09-06T20:11:42.191Z,2.65
2022-09-06T20:14:10.916Z,2.25
2022-09-06T20:16:42.046Z,2.20
2022-09-06T20:19:12.183Z,1.98
2022-09-06T20:21:40.270Z,2.20
2022-09-06T20:24:08.730Z,2.17
2022-09-06T20:26:38.084Z,2.22
2022-09-06T20:29:06.787Z,2.33
2022-09-06T20:31:36.304Z,2.50
2022-09-06T20:34:06.380Z,2.60
2022-09-06T20:36:34.519Z,1.90
2022-09-06T20:39:03.152Z,2.25
2022-09-06T20:41:31.159Z,2.55
2022-09-06T20:44:01.320Z,2.33
2022-09-06T20:46:31.264Z,2.60
2022-09-06T20:49:03.539Z,2.53
2022-09-06T20:51:32.643Z,2.22
2022-09-06T20:54:01.692Z,2.65
2022-09-06T20:56:31.607Z,2.03
2022-09-06T20:59:02.754Z,2.50
2022-09-06T21:01:34.374Z,2.22
2022-09-06T21:04:04.183Z,2.47
2022-09-06T21:06:35.623Z,2.28
2022-09-06T21:09:04.852Z,2.50
2022-09-06T21:11:33.034Z,2.50
2022-09-06T21:14:03.522Z,2.42
2022-09-06T21:16:32.428Z,2.15
2022-09-06T21:19:01.863Z,2.35
2022-09-06T21:21:32.346Z,2.53
2022-09-06T21:24:01.532Z,2.42
2022-09-06T21:26:30.514Z,1.73
2022-09-06T21:28:58.947Z,2.33
2022-09-06T21:31:30.619Z,2.58
2022-09-06T21:34:00.444Z,2.28
2022-09-06T21:36:30.215Z,1.90
2022-09-06T21:39:00.467Z,2.28
2022-09-06T21:41:29.463Z,2.17
2022-09-06T21:43:59.532Z,2.10
2022-09-06T21:46:33.115Z,2.13
2022-09-06T21:49:03.561Z,1.70
2022-09-06T21:51:32.581Z,2.25
2022-09-06T21:54:03.542Z,2.28
2022-09-06T21:56:32.432Z,2.25
2022-09-06T21:59:00.882Z,2.53
2022-09-06T22:01:32.113Z,2.33
2022-09-06T22:04:01.106Z,2.75
2022-09-06T22:06:31.485Z,1.83
2022-09-06T22:09:04.641Z,2.10
2022-09-06T22:11:34.624Z,2.10
2022-09-06T22:14:05.747Z,2.05
2022-09-06T22:16:37.571Z,2.35
2022-09-06T22:19:06.083Z,2.58
2022-09-06T22:21:34.955Z,2.00
2022-09-06T22:24:06.402Z,2.72
2022-09-06T22:26:36.643Z,2.40
2022-09-06T22:29:07.566Z,2.42
2022-09-06T22:31:37.931Z,2.50
2022-09-06T22:34:06.440Z,1.83
2022-09-06T22:36:34.830Z,2.22
2022-09-06T22:39:02.920Z,2.10
2022-09-06T22:41:32.985Z,1.83
2022-09-06T22:44:01.478Z,2.15
2022-09-06T22:46:30.187Z,1.80
2022-09-06T22:49:00.385Z,2.40
2022-09-06T22:51:28.427Z,2.17
2022-09-06T22:53:56.548Z,2.17
2022-09-06T22:56:24.816Z,2.35
2022-09-06T22:58:52.932Z,2.47
2022-09-06T23:01:21.020Z,2.30
2022-09-06T23:03:50.720Z,2.38
2022-09-06T23:06:20.477Z,2.35
2022-09-06T23:08:48.606Z,2.42
2022-09-06T23:11:18.815Z,2.55
2022-09-06T23:13:47.223Z,2.65
2022-09-06T23:16:17.141Z,2.40
2022-09-06T23:18:46.290Z,2.15
2022-09-06T23:21:17.031Z,2.50
2022-09-06T23:23:47.946Z,2.80
2022-09-06T23:26:17.701Z,2.40
2022-09-06T23:28:47.469Z,2.15
2022-09-06T23:31:16.902Z,2.37
2022-09-06T23:33:45.384Z,2.40
2022-09-06T23:36:15.218Z,2.20
2022-09-06T23:38:43.690Z,2.23
2022-09-06T23:41:13.890Z,2.20
2022-09-06T23:43:43.606Z,2.50
2022-09-06T23:46:13.130Z,2.70
2022-09-06T23:48:41.096Z,2.30
2022-09-06T23:51:10.056Z,2.43
2022-09-06T23:53:39.446Z,2.10
2022-09-06T23:56:08.895Z,2.43
2022-09-06T23:58:39.063Z,2.60
